Time;durP1;ratioP1;P1;durP2;ratioP2;P2;SDS_P1;SDS_P2;PMS_P1;PMS_P2;Temp;Humidity;BMP_temperature;BMP_pressure;BME280_temperature;BME280_humidity;BME280_pressure;Samples;Min_cycle;Max_cycle;Signal;HPM_P1;HPM_P2
2023/01/13 00:00:33;;;;;;;0.50;0.30;;;11.00;99.90;;;;;;5029021;28;20434;-74
2023/01/13 00:03:00;;;;;;;0.50;0.30;;;11.00;99.90;;;;;;5028145;28;20782;-72
2023/01/13 00:05:27;;;;;;;0.82;0.30;;;11.10;99.90;;;;;;5027218;28;20434;-71
2023/01/13 00:07:53;;;;;;;0.60;0.30;;;11.10;99.90;;;;;;5027736;28;20779;-73
2023/01/13 00:10:21;;;;;;;1.20;0.40;;;11.20;99.70;;;;;;5027469;28;20423;-71
2023/01/13 00:12:48;;;;;;;0.70;0.30;;;11.20;99.70;;;;;;5026853;28;20445;-73
2023/01/13 00:15:15;;;;;;;1.40;0.40;;;11.20;99.90;;;;;;5027029;28;20422;-73
2023/01/13 00:17:42;;;;;;;0.60;0.30;;;10.90;99.90;;;;;;5024714;28;20441;-73
2023/01/13 00:20:10;;;;;;;0.80;0.40;;;10.60;99.90;;;;;;5025953;28;20435;-72
2023/01/13 00:22:37;;;;;;;0.70;0.40;;;10.40;99.90;;;;;;5025933;28;20423;-72
2023/01/13 00:25:05;;;;;;;1.40;0.40;;;10.30;99.90;;;;;;5027546;28;20414;-72
2023/01/13 00:27:33;;;;;;;0.80;0.50;;;10.30;99.90;;;;;;5027883;28;20426;-70
2023/01/13 00:30:00;;;;;;;0.60;0.40;;;10.20;99.90;;;;;;5027220;28;20415;-73
2023/01/13 00:32:28;;;;;;;0.50;0.30;;;10.30;99.90;;;;;;5024546;28;21171;-72
2023/01/13 00:34:54;;;;;;;1.40;0.40;;;10.30;99.90;;;;;;5026653;28;20418;-73
2023/01/13 00:37:22;;;;;;;0.60;0.30;;;10.30;99.90;;;;;;5027077;28;20924;-73
2023/01/13 00:39:50;;;;;;;0.60;0.50;;;10.30;99.90;;;;;;5027604;28;20482;-73
2023/01/13 00:45:02;;;;;;;0.60;0.40;;;10.40;99.90;;;;;;5026557;28;20429;-73
2023/01/13 00:47:30;;;;;;;0.80;0.40;;;10.40;99.90;;;;;;5026100;28;20433;-72
2023/01/13 00:49:57;;;;;;;0.80;0.40;;;10.30;99.90;;;;;;5026856;28;20812;-73
2023/01/13 00:52:24;;;;;;;0.60;0.38;;;10.20;99.90;;;;;;5044234;28;20421;-73
2023/01/13 00:54:50;;;;;;;0.70;0.40;;;10.20;99.90;;;;;;5050801;28;20783;-73
2023/01/13 00:57:17;;;;;;;1.10;0.50;;;10.20;99.90;;;;;;5049802;28;20885;-74
2023/01/13 00:59:44;;;;;;;0.80;0.40;;;10.20;99.90;;;;;;5037435;28;20913;-72
2023/01/13 01:02:12;;;;;;;1.20;0.40;;;10.30;99.90;;;;;;5028867;28;20435;-72
2023/01/13 01:04:39;;;;;;;1.60;0.60;;;10.40;99.80;;;;;;5030058;28;20423;-73
2023/01/13 01:07:05;;;;;;;0.60;0.40;;;10.40;99.90;;;;;;5030563;28;20418;-72
2023/01/13 01:09:33;;;;;;;1.63;0.50;;;10.40;99.80;;;;;;5030046;28;20414;-72
2023/01/13 01:12:00;;;;;;;1.20;0.70;;;10.40;99.00;;;;;;5029422;28;20431;-73
2023/01/13 01:14:27;;;;;;;0.80;0.40;;;10.50;96.80;;;;;;5029072;28;20430;-73
2023/01/13 01:16:54;;;;;;;2.90;0.50;;;10.50;95.10;;;;;;5029122;28;20443;-72
2023/01/13 01:19:22;;;;;;;0.65;0.30;;;10.50;94.40;;;;;;5029794;28;20427;-73
2023/01/13 01:21:49;;;;;;;1.20;0.40;;;10.50;94.20;;;;;;5031040;28;20426;-72
2023/01/13 01:24:16;;;;;;;0.60;0.40;;;10.40;93.30;;;;;;5029658;28;20411;-72
2023/01/13 01:26:43;;;;;;;1.20;0.50;;;10.40;94.10;;;;;;5029608;28;20451;-71
2023/01/13 01:29:13;;;;;;;1.55;0.40;;;10.50;94.00;;;;;;5029920;28;20425;-74
2023/01/13 01:31:40;;;;;;;1.20;0.50;;;10.50;94.30;;;;;;5028203;28;20525;-73
2023/01/13 01:34:07;;;;;;;0.97;0.40;;;10.40;93.90;;;;;;5029058;28;20415;-73
2023/01/13 01:36:35;;;;;;;1.13;0.65;;;10.40;93.10;;;;;;5028507;28;20442;-73
2023/01/13 01:39:03;;;;;;;2.10;0.65;;;10.50;88.40;;;;;;5028493;28;20431;-73
2023/01/13 01:41:32;;;;;;;1.70;0.60;;;10.50;88.90;;;;;;5028356;28;20442;-71
2023/01/13 01:44:03;;;;;;;1.92;0.70;;;10.50;89.00;;;;;;5027657;28;20438;-72
2023/01/13 01:46:32;;;;;;;1.60;0.77;;;10.40;90.30;;;;;;5029044;28;20504;-74
2023/01/13 01:49:04;;;;;;;1.65;0.60;;;10.20;91.70;;;;;;5028862;28;20415;-72
2023/01/13 01:51:34;;;;;;;2.20;0.90;;;9.90;92.50;;;;;;5029108;28;20820;-74
2023/01/13 01:54:04;;;;;;;2.45;0.90;;;9.70;93.20;;;;;;5028506;28;20429;-72
2023/01/13 01:56:33;;;;;;;1.42;0.60;;;9.40;94.10;;;;;;5028336;28;20426;-71
2023/01/13 01:59:00;;;;;;;3.17;1.10;;;9.20;92.50;;;;;;5026794;28;20423;-73
2023/01/13 02:01:27;;;;;;;1.77;0.60;;;9.00;93.80;;;;;;5027497;28;20446;-73
2023/01/13 02:03:58;;;;;;;2.30;0.90;;;8.80;95.80;;;;;;5027801;28;20470;-73
2023/01/13 02:06:25;;;;;;;1.40;0.50;;;8.70;96.00;;;;;;5028613;28;20426;-73
2023/01/13 02:08:53;;;;;;;1.37;0.60;;;8.60;96.20;;;;;;5028435;28;20438;-73
2023/01/13 02:14:14;;;;;;;2.17;0.70;;;8.60;96.20;;;;;;5027898;28;20808;-74
2023/01/13 02:16:48;;;;;;;2.25;0.73;;;8.70;96.70;;;;;;5030189;28;20438;-73
2023/01/13 02:19:31;;;;;;;1.33;0.65;;;8.70;96.80;;;;;;5019015;28;20468;-73
2023/01/13 02:22:31;;;;;;;1.50;0.90;;;8.70;96.90;;;;;;5028572;28;20434;-72
2023/01/13 02:25:21;;;;;;;2.70;0.80;;;8.80;97.70;;;;;;5025400;28;20463;-71
2023/01/13 02:28:02;;;;;;;1.60;0.70;;;8.80;97.70;;;;;;5029977;28;20489;-72
2023/01/13 02:33:45;;;;;;;2.00;0.90;;;8.80;98.50;;;;;;5025854;28;20572;-74
2023/01/13 02:36:18;;;;;;;1.83;0.65;;;8.80;98.10;;;;;;5016160;28;21015;-71
2023/01/13 02:38:51;;;;;;;1.80;0.60;;;8.90;96.80;;;;;;5029637;28;20928;-74
2023/01/13 02:44:12;;;;;;;0.90;0.45;;;9.10;95.50;;;;;;5026942;28;20439;-71
2023/01/13 02:46:49;;;;;;;2.40;1.00;;;9.10;94.50;;;;;;5027337;28;20975;-73
2023/01/13 02:49:21;;;;;;;1.58;0.50;;;9.20;93.70;;;;;;5023427;28;20909;-73
2023/01/13 02:51:50;;;;;;;1.92;0.60;;;9.20;92.90;;;;;;5037886;28;20454;-71
2023/01/13 02:54:21;;;;;;;2.00;0.70;;;9.20;92.60;;;;;;5047607;28;20416;-73
2023/01/13 02:56:50;;;;;;;3.10;0.70;;;9.20;91.70;;;;;;5047554;28;20451;-72
2023/01/13 02:59:19;;;;;;;1.70;0.60;;;9.20;91.20;;;;;;5028191;28;20427;-73
2023/01/13 03:01:48;;;;;;;1.95;0.68;;;9.30;90.30;;;;;;5026614;28;20470;-71
2023/01/13 03:04:48;;;;;;;1.27;0.60;;;9.20;90.50;;;;;;5018770;28;20423;-73
2023/01/13 03:07:52;;;;;;;3.08;0.70;;;9.20;89.00;;;;;;5027569;28;20939;-71
2023/01/13 03:10:29;;;;;;;2.97;0.80;;;9.20;88.00;;;;;;5027629;28;21082;-72
2023/01/13 03:13:03;;;;;;;3.10;0.88;;;9.20;87.40;;;;;;5026325;28;20415;-72
2023/01/13 03:15:42;;;;;;;1.90;0.80;;;9.20;86.30;;;;;;5026471;28;20983;-71
2023/01/13 03:18:19;;;;;;;1.88;0.70;;;9.20;86.00;;;;;;5027169;28;20446;-71
2023/01/13 03:20:54;;;;;;;2.60;0.90;;;9.20;86.10;;;;;;5027360;28;20471;-71
2023/01/13 03:23:30;;;;;;;3.28;0.90;;;9.30;87.20;;;;;;5027036;28;20446;-72
2023/01/13 03:26:06;;;;;;;3.00;1.10;;;9.30;85.70;;;;;;5026844;28;20445;-72
2023/01/13 03:28:36;;;;;;;4.13;1.10;;;9.20;85.10;;;;;;5025325;28;20438;-72
2023/01/13 03:31:09;;;;;;;3.20;1.23;;;9.20;86.30;;;;;;5018836;28;20829;-73
2023/01/13 03:33:44;;;;;;;4.72;1.40;;;9.20;85.60;;;;;;5025899;28;20924;-72
2023/01/13 03:36:14;;;;;;;4.88;1.23;;;9.10;85.80;;;;;;5028084;28;20427;-73
2023/01/13 03:38:43;;;;;;;3.47;1.00;;;9.10;84.90;;;;;;5030620;28;20422;-73
2023/01/13 03:41:14;;;;;;;4.95;1.60;;;9.10;85.70;;;;;;5029744;28;20418;-72
2023/01/13 03:46:38;;;;;;;2.30;1.08;;;9.10;85.80;;;;;;5020901;28;20557;-73
2023/01/13 03:49:08;;;;;;;3.47;1.40;;;9.10;86.20;;;;;;5026819;28;20430;-72
2023/01/13 03:51:38;;;;;;;3.70;1.40;;;9.10;87.30;;;;;;5035180;28;20425;-72
2023/01/13 03:54:09;;;;;;;5.90;2.00;;;9.10;86.00;;;;;;5046433;28;20423;-72
2023/01/13 03:56:41;;;;;;;4.87;1.70;;;9.10;88.70;;;;;;5037431;28;20422;-71
2023/01/13 03:59:11;;;;;;;5.13;1.67;;;9.10;88.40;;;;;;5026012;28;21092;-73
2023/01/13 04:01:45;;;;;;;6.20;2.15;;;9.10;88.20;;;;;;5027736;28;20458;-72
2023/01/13 04:04:18;;;;;;;5.30;2.00;;;9.00;87.20;;;;;;5017579;28;20419;-73
2023/01/13 04:06:52;;;;;;;5.57;1.70;;;9.00;88.70;;;;;;5027358;28;20976;-71
2023/01/13 04:09:28;;;;;;;5.73;1.80;;;9.00;88.70;;;;;;5027136;28;20434;-73
2023/01/13 04:12:00;;;;;;;5.32;1.92;;;9.00;87.00;;;;;;5026226;28;20471;-72
2023/01/13 04:14:28;;;;;;;6.53;2.30;;;9.00;88.60;;;;;;5025111;28;20526;-71
2023/01/13 04:16:56;;;;;;;6.63;2.67;;;8.90;88.40;;;;;;5026300;28;20442;-72
2023/01/13 04:19:24;;;;;;;5.13;1.80;;;8.80;90.80;;;;;;5024437;28;20797;-72
2023/01/13 04:21:51;;;;;;;6.00;2.53;;;8.70;89.30;;;;;;5027242;28;20792;-73
2023/01/13 04:24:18;;;;;;;5.00;2.13;;;8.60;90.00;;;;;;5025956;28;20493;-72
2023/01/13 04:26:44;;;;;;;6.40;1.90;;;8.60;90.50;;;;;;5029936;28;20891;-72
2023/01/13 04:29:11;;;;;;;5.40;2.40;;;8.50;90.40;;;;;;5029837;28;20419;-72
2023/01/13 04:31:38;;;;;;;6.05;2.50;;;8.50;90.80;;;;;;5030271;28;20427;-72
2023/01/13 04:34:04;;;;;;;7.53;2.15;;;8.50;91.00;;;;;;5029770;28;20518;-71
2023/01/13 04:36:34;;;;;;;8.32;2.22;;;8.40;91.70;;;;;;5030373;28;20419;-72
2023/01/13 04:39:01;;;;;;;6.60;2.22;;;8.30;91.70;;;;;;5030376;28;20527;-73
2023/01/13 04:41:56;;;;;;;5.53;2.20;;;8.30;91.60;;;;;;5029377;28;20445;-73
2023/01/13 04:44:14;;;;;;;7.10;2.42;;;8.20;91.60;;;;;;5029123;28;20437;-72
2023/01/13 04:46:41;;;;;;;7.80;2.90;;;8.20;91.70;;;;;;5029353;28;20430;-73
2023/01/13 04:49:08;;;;;;;8.60;2.90;;;8.20;92.10;;;;;;5030157;28;20426;-72
2023/01/13 04:54:18;;;;;;;8.77;2.70;;;7.90;93.50;;;;;;5005065;28;20474;-71
2023/01/13 04:56:45;;;;;;;5.10;2.10;;;8.00;93.00;;;;;;5009072;28;20417;-70
2023/01/13 04:59:13;;;;;;;6.80;2.73;;;8.00;92.90;;;;;;5008584;28;21075;-70
2023/01/13 05:01:40;;;;;;;10.48;2.65;;;8.20;92.50;;;;;;5010243;28;20546;-71
2023/01/13 05:04:08;;;;;;;11.20;2.80;;;8.30;91.90;;;;;;5028590;28;20441;-69
2023/01/13 05:06:36;;;;;;;8.13;2.75;;;8.30;91.90;;;;;;5031144;28;20411;-75
2023/01/13 05:09:03;;;;;;;8.68;2.70;;;8.40;91.20;;;;;;5043357;28;20445;-70
2023/01/13 05:17:00;;;;;;;8.35;2.40;;;8.40;92.10;;;;;;5014196;28;20427;-70
2023/01/13 05:19:27;;;;;;;8.93;2.40;;;8.40;91.30;;;;;;5028371;28;21011;-71
2023/01/13 05:27:24;;;;;;;11.38;2.60;;;8.20;92.20;;;;;;5021839;28;20682;-69
2023/01/13 05:29:51;;;;;;;8.70;2.80;;;8.10;91.20;;;;;;5024570;28;20430;-69
2023/01/13 05:32:18;;;;;;;8.50;3.20;;;8.20;91.20;;;;;;5027095;28;20492;-74
2023/01/13 05:34:45;;;;;;;9.57;2.63;;;8.20;91.50;;;;;;5022292;28;20450;-71
2023/01/13 05:37:13;;;;;;;10.23;2.65;;;8.10;91.70;;;;;;5026041;28;20442;-72
2023/01/13 05:45:10;;;;;;;7.78;2.30;;;8.30;91.00;;;;;;5044140;28;20822;-69
2023/01/13 05:47:37;;;;;;;8.68;2.40;;;8.30;90.70;;;;;;5039913;28;20405;-72
2023/01/13 05:50:05;;;;;;;5.17;1.60;;;8.40;90.30;;;;;;5040316;28;20426;-71
2023/01/13 05:52:33;;;;;;;7.90;2.10;;;8.50;90.10;;;;;;5050632;28;20427;-71
2023/01/13 05:54:59;;;;;;;5.50;2.00;;;8.60;89.50;;;;;;5043366;28;20433;-71
2023/01/13 05:57:26;;;;;;;5.85;2.40;;;8.60;89.00;;;;;;5029506;28;20430;-70
2023/01/13 05:59:53;;;;;;;3.45;1.58;;;8.60;89.00;;;;;;5040917;28;20442;-73
2023/01/13 06:02:20;;;;;;;4.78;2.10;;;8.60;89.00;;;;;;5030947;28;20425;-70
2023/01/13 06:04:46;;;;;;;5.20;1.50;;;8.60;89.30;;;;;;5020694;28;20435;-73
2023/01/13 06:07:13;;;;;;;5.90;2.05;;;8.50;89.40;;;;;;5024544;28;20434;-72
2023/01/13 06:09:41;;;;;;;5.65;1.80;;;8.60;89.70;;;;;;5037684;28;20427;-70
2023/01/13 06:12:10;;;;;;;6.15;1.50;;;8.50;90.00;;;;;;5031665;28;20428;-70
2023/01/13 06:14:39;;;;;;;4.93;1.90;;;8.40;90.30;;;;;;5031949;28;20398;-70
2023/01/13 06:17:07;;;;;;;5.57;1.83;;;8.40;91.10;;;;;;5033062;28;20491;-71
2023/01/13 06:19:34;;;;;;;4.72;1.60;;;8.40;91.20;;;;;;5026954;28;21240;-70
2023/01/13 06:22:07;;;;;;;3.17;1.40;;;8.50;90.40;;;;;;5031198;28;20437;-69
2023/01/13 06:24:34;;;;;;;2.22;1.20;;;8.50;90.80;;;;;;5030383;28;20952;-69
2023/01/13 06:27:03;;;;;;;4.53;1.40;;;8.60;90.30;;;;;;5016823;28;20478;-70
2023/01/13 06:29:30;;;;;;;5.22;1.42;;;8.60;90.20;;;;;;5028868;28;20440;-70
2023/01/13 06:31:57;;;;;;;4.80;1.50;;;8.60;90.40;;;;;;5019734;28;20556;-70
2023/01/13 06:34:24;;;;;;;4.45;1.40;;;8.70;90.20;;;;;;5014058;28;20422;-72
2023/01/13 06:36:54;;;;;;;5.60;1.83;;;8.70;90.00;;;;;;5020528;28;21049;-71
2023/01/13 06:39:24;;;;;;;4.97;1.60;;;8.70;90.30;;;;;;5025833;28;20432;-70
2023/01/13 06:44:39;;;;;;;6.20;1.40;;;8.80;89.30;;;;;;5020755;28;20434;-71
2023/01/13 06:47:07;;;;;;;4.20;1.30;;;8.80;90.10;;;;;;5022083;28;20443;-70
2023/01/13 06:49:34;;;;;;;4.00;1.70;;;8.70;90.30;;;;;;5019703;28;20482;-70
2023/01/13 06:52:01;;;;;;;4.63;1.40;;;8.70;88.90;;;;;;5020471;28;20448;-70
2023/01/13 06:54:28;;;;;;;4.10;1.50;;;8.60;89.80;;;;;;5018760;28;20443;-70
2023/01/13 06:56:54;;;;;;;4.95;1.40;;;8.60;89.20;;;;;;5015411;28;20436;-70
2023/01/13 06:59:21;;;;;;;5.22;1.30;;;8.60;89.60;;;;;;5023423;28;20426;-70
2023/01/13 07:01:49;;;;;;;6.25;1.77;;;8.60;89.90;;;;;;5012477;28;20452;-70
2023/01/13 07:04:17;;;;;;;7.00;1.67;;;8.60;90.10;;;;;;5017416;28;20445;-70
2023/01/13 07:06:44;;;;;;;4.43;1.25;;;8.70;89.70;;;;;;5017240;28;20526;-69
2023/01/13 07:09:11;;;;;;;2.83;1.10;;;8.60;90.40;;;;;;5025204;28;20438;-69
2023/01/13 07:11:38;;;;;;;4.78;1.58;;;8.60;89.10;;;;;;5019279;28;20559;-68
2023/01/13 07:16:52;;;;;;;4.10;1.10;;;8.90;89.90;;;;;;5009734;28;20561;-70
2023/01/13 07:19:22;;;;;;;5.15;1.40;;;9.00;86.10;;;;;;5020646;28;20438;-70
2023/01/13 07:21:49;;;;;;;3.95;1.40;;;8.90;86.90;;;;;;5021816;28;20418;-69
2023/01/13 07:24:16;;;;;;;3.05;0.93;;;8.80;88.10;;;;;;5025883;28;20777;-69
2023/01/13 07:26:42;;;;;;;3.88;1.50;;;8.70;88.20;;;;;;5024221;28;20415;-70
2023/01/13 07:29:09;;;;;;;4.60;1.38;;;8.70;89.20;;;;;;5021586;28;20834;-70
2023/01/13 07:31:37;;;;;;;3.38;1.30;;;8.60;89.60;;;;;;5021845;28;20431;-70
2023/01/13 07:34:05;;;;;;;2.33;0.93;;;8.60;89.70;;;;;;5020677;28;20453;-69
2023/01/13 07:36:32;;;;;;;3.03;1.00;;;8.50;90.00;;;;;;5023679;28;20446;-70
2023/01/13 07:38:59;;;;;;;3.53;1.48;;;8.40;89.60;;;;;;5023425;28;20432;-69
2023/01/13 07:44:10;;;;;;;2.67;0.98;;;8.40;89.60;;;;;;5018728;28;20561;-70
2023/01/13 07:46:37;;;;;;;2.13;1.00;;;8.30;90.00;;;;;;5025685;28;20510;-70
2023/01/13 07:49:06;;;;;;;2.97;1.25;;;8.20;90.30;;;;;;5005613;28;20421;-70
2023/01/13 07:51:36;;;;;;;2.47;1.10;;;8.10;90.90;;;;;;5017341;28;20442;-70
2023/01/13 07:54:03;;;;;;;2.70;1.50;;;8.00;91.50;;;;;;5019912;28;20928;-70
2023/01/13 07:56:30;;;;;;;3.38;1.25;;;8.00;91.70;;;;;;5012101;28;20494;-70
2023/01/13 07:58:58;;;;;;;2.58;1.10;;;7.90;92.10;;;;;;5023547;28;20422;-70
2023/01/13 08:01:26;;;;;;;3.03;0.90;;;7.90;92.80;;;;;;5027773;28;20783;-72
2023/01/13 08:03:53;;;;;;;4.68;1.10;;;7.80;92.90;;;;;;5020725;28;20538;-70
2023/01/13 08:06:21;;;;;;;3.47;1.50;;;7.80;92.30;;;;;;5043017;28;20877;-70
2023/01/13 08:08:48;;;;;;;3.22;1.10;;;7.80;92.90;;;;;;5042567;28;20441;-70
2023/01/13 08:11:15;;;;;;;2.50;1.33;;;7.80;93.00;;;;;;5027366;28;20431;-71
2023/01/13 08:13:42;;;;;;;2.67;1.00;;;7.80;93.20;;;;;;5032706;28;21000;-71
2023/01/13 08:16:11;;;;;;;2.70;1.17;;;7.80;93.30;;;;;;5035839;28;20451;-72
2023/01/13 08:18:38;;;;;;;4.85;1.45;;;7.90;93.20;;;;;;5032258;28;20461;-70
2023/01/13 08:21:07;;;;;;;4.22;1.60;;;8.00;92.80;;;;;;5033792;28;20446;-71
2023/01/13 08:23:35;;;;;;;4.40;1.30;;;8.00;92.90;;;;;;5031036;28;20478;-70
2023/01/13 08:26:04;;;;;;;3.95;1.27;;;8.00;92.70;;;;;;5020457;28;20433;-73
2023/01/13 08:28:31;;;;;;;3.80;1.60;;;8.10;92.80;;;;;;5025112;28;20436;-70
2023/01/13 08:31:00;;;;;;;3.80;1.20;;;8.20;92.50;;;;;;5027239;28;20515;-69
2023/01/13 08:33:27;;;;;;;3.92;1.40;;;8.20;92.50;;;;;;5023292;28;20775;-70
2023/01/13 08:35:55;;;;;;;5.28;1.60;;;8.30;91.90;;;;;;5036169;28;20436;-71
2023/01/13 08:38:22;;;;;;;3.90;1.98;;;8.30;92.30;;;;;;5019700;28;20431;-70
2023/01/13 08:40:50;;;;;;;7.65;1.70;;;8.40;92.30;;;;;;5022891;28;20440;-70
2023/01/13 08:43:17;;;;;;;9.07;1.80;;;8.50;91.70;;;;;;5017033;28;20427;-71
2023/01/13 08:45:44;;;;;;;3.97;1.52;;;8.70;90.20;;;;;;5013310;28;20452;-70
2023/01/13 08:48:11;;;;;;;6.68;1.63;;;8.90;89.20;;;;;;5022118;28;20426;-71
2023/01/13 08:50:37;;;;;;;4.83;1.80;;;9.00;87.40;;;;;;5009717;28;20499;-69
2023/01/13 08:53:04;;;;;;;6.40;2.35;;;9.10;88.10;;;;;;5023702;28;20446;-70
2023/01/13 08:55:31;;;;;;;7.75;2.13;;;9.20;86.90;;;;;;5031156;28;20427;-70
2023/01/13 08:57:59;;;;;;;7.50;2.50;;;9.20;84.70;;;;;;5018105;28;20445;-71
2023/01/13 09:00:26;;;;;;;4.70;2.10;;;9.10;84.40;;;;;;5017007;28;20530;-73
2023/01/13 09:02:53;;;;;;;8.95;2.60;;;9.10;85.10;;;;;;5024742;28;20543;-69
2023/01/13 09:05:19;;;;;;;7.68;2.65;;;9.00;85.10;;;;;;5028812;28;20428;-74
2023/01/13 09:07:46;;;;;;;11.30;2.30;;;9.00;85.00;;;;;;5016438;28;20432;-70
2023/01/13 09:10:13;;;;;;;7.75;2.35;;;9.10;84.80;;;;;;5021112;28;20438;-69
2023/01/13 09:15:25;;;;;;;8.40;2.50;;;9.20;84.50;;;;;;5025678;28;20430;-72
2023/01/13 09:17:52;;;;;;;8.85;2.80;;;9.30;82.30;;;;;;5026393;28;20438;-70
2023/01/13 09:20:19;;;;;;;6.90;2.33;;;9.40;82.50;;;;;;5026254;28;20807;-70
2023/01/13 09:22:46;;;;;;;7.22;2.33;;;9.50;80.10;;;;;;5032440;28;20505;-68
2023/01/13 09:25:12;;;;;;;8.43;2.50;;;9.50;80.10;;;;;;5038491;28;20418;-69
2023/01/13 09:27:40;;;;;;;7.90;2.25;;;9.40;79.90;;;;;;5021179;28;20428;-69
2023/01/13 09:30:08;;;;;;;5.43;2.50;;;9.40;79.70;;;;;;5028735;28;20417;-71
2023/01/13 09:32:38;;;;;;;7.57;2.20;;;9.30;80.60;;;;;;5030366;28;20429;-70
2023/01/13 09:35:05;;;;;;;7.82;2.40;;;9.30;81.20;;;;;;5034473;28;20433;-70
2023/01/13 09:37:33;;;;;;;7.33;2.67;;;9.50;79.50;;;;;;5022734;28;20504;-70
2023/01/13 09:40:01;;;;;;;9.18;3.00;;;9.60;78.20;;;;;;5026556;28;20542;-69
2023/01/13 09:45:33;;;;;;;8.70;3.53;;;9.80;77.20;;;;;;5024292;28;20480;-74
2023/01/13 09:48:07;;;;;;;7.30;2.90;;;9.80;76.00;;;;;;5027494;28;20889;-70
2023/01/13 09:50:47;;;;;;;9.18;2.63;;;9.70;77.20;;;;;;5025636;28;20801;-69
2023/01/13 09:53:19;;;;;;;6.93;2.10;;;9.60;77.50;;;;;;5021920;28;20423;-69
2023/01/13 09:55:46;;;;;;;9.80;2.60;;;9.70;76.80;;;;;;5026357;28;20438;-70
2023/01/13 09:58:16;;;;;;;6.50;1.90;;;9.80;74.80;;;;;;5024450;28;20475;-70
2023/01/13 10:00:49;;;;;;;8.75;2.30;;;9.90;73.40;;;;;;5032698;28;20434;-69
2023/01/13 10:03:24;;;;;;;8.13;2.50;;;10.00;73.80;;;;;;5036471;28;20423;-70
2023/01/13 10:05:58;;;;;;;9.57;2.60;;;10.10;73.50;;;;;;5046318;28;20446;-70
2023/01/13 10:08:28;;;;;;;7.38;2.80;;;10.30;72.60;;;;;;5042727;28;20526;-68
2023/01/13 10:10:57;;;;;;;7.07;2.47;;;10.30;72.70;;;;;;5031267;28;20920;-69
2023/01/13 10:13:24;;;;;;;8.90;2.85;;;10.30;73.40;;;;;;5024533;28;20415;-68
2023/01/13 10:16:19;;;;;;;7.20;2.67;;;10.30;72.60;;;;;;5030784;28;20434;-67
2023/01/13 10:19:03;;;;;;;8.50;2.60;;;10.40;73.00;;;;;;5022163;28;20449;-71
2023/01/13 10:21:53;;;;;;;7.70;2.60;;;10.40;72.40;;;;;;5021944;28;20431;-69
2023/01/13 10:24:25;;;;;;;11.00;2.65;;;10.50;73.00;;;;;;5026991;28;20473;-67
2023/01/13 10:27:02;;;;;;;6.07;2.40;;;10.50;71.80;;;;;;5026157;28;20431;-68
2023/01/13 10:29:30;;;;;;;10.45;2.53;;;10.60;70.80;;;;;;5041087;28;20442;-66
2023/01/13 10:31:59;;;;;;;6.70;2.70;;;10.60;70.10;;;;;;5044101;28;20446;-68
2023/01/13 10:34:28;;;;;;;10.80;2.50;;;10.50;71.40;;;;;;5038427;28;20442;-66
2023/01/13 10:37:05;;;;;;;5.80;2.53;;;10.40;71.70;;;;;;5040462;28;20447;-68
2023/01/13 10:39:40;;;;;;;9.38;2.60;;;10.20;72.00;;;;;;5035013;28;20505;-67
2023/01/13 10:42:13;;;;;;;10.00;2.72;;;10.20;71.60;;;;;;5026194;28;20446;-65
2023/01/13 10:44:48;;;;;;;9.60;2.90;;;10.30;72.60;;;;;;5033834;28;20467;-65
2023/01/13 10:47:24;;;;;;;7.47;3.17;;;10.40;71.00;;;;;;5021551;28;20462;-66
2023/01/13 10:50:18;;;;;;;8.52;2.90;;;10.50;70.70;;;;;;5030942;28;20431;-68
2023/01/13 10:52:57;;;;;;;6.63;2.33;;;10.50;70.30;;;;;;5034199;28;20419;-65
2023/01/13 10:55:26;;;;;;;7.43;2.50;;;10.60;69.80;;;;;;5021862;28;20458;-67
2023/01/13 10:57:53;;;;;;;8.23;2.60;;;10.70;69.80;;;;;;5027660;28;20454;-65
2023/01/13 11:00:27;;;;;;;7.60;2.83;;;10.80;70.90;;;;;;5017325;28;20440;-68
2023/01/13 11:03:18;;;;;;;5.53;2.40;;;10.80;69.30;;;;;;5027734;28;20481;-68
2023/01/13 11:05:52;;;;;;;11.43;2.80;;;10.60;70.00;;;;;;5028410;28;20431;-68
2023/01/13 11:08:21;;;;;;;8.23;3.00;;;10.70;71.60;;;;;;5027696;28;20427;-69
2023/01/13 11:10:51;;;;;;;8.83;3.00;;;10.60;69.60;;;;;;5032429;28;20496;-68
2023/01/13 11:13:23;;;;;;;9.23;2.80;;;10.70;69.90;;;;;;5024874;28;20431;-69
2023/01/13 11:15:54;;;;;;;7.85;2.95;;;10.70;69.70;;;;;;5028728;28;20423;-68
2023/01/13 11:18:28;;;;;;;9.00;2.63;;;10.70;69.70;;;;;;5028261;28;20435;-67
2023/01/13 11:20:58;;;;;;;10.30;2.70;;;10.50;68.90;;;;;;5016277;28;20441;-68
2023/01/13 11:23:31;;;;;;;9.48;3.65;;;10.50;69.80;;;;;;5029378;28;21079;-68
2023/01/13 11:26:03;;;;;;;7.88;2.65;;;10.50;70.10;;;;;;5027330;28;20457;-68
2023/01/13 11:28:46;;;;;;;8.38;3.17;;;10.50;69.20;;;;;;5035373;28;20442;-67
2023/01/13 11:31:20;;;;;;;8.52;2.78;;;10.60;69.80;;;;;;5024363;28;20842;-68
2023/01/13 11:33:54;;;;;;;8.25;3.08;;;10.70;67.80;;;;;;5027612;28;20886;-68
2023/01/13 11:36:25;;;;;;;9.27;3.20;;;10.70;67.90;;;;;;5026355;28;20438;-68
2023/01/13 11:38:55;;;;;;;9.60;3.70;;;10.70;67.00;;;;;;5027176;28;20434;-67
2023/01/13 11:41:32;;;;;;;10.50;3.30;;;10.60;67.70;;;;;;5026572;28;20957;-67
2023/01/13 11:44:08;;;;;;;9.07;3.30;;;10.60;67.90;;;;;;5040441;28;20411;-69
2023/01/13 11:46:35;;;;;;;7.90;2.90;;;10.60;67.50;;;;;;5035979;28;20434;-70
2023/01/13 11:49:03;;;;;;;8.05;2.75;;;10.60;66.30;;;;;;5040853;28;20503;-67
2023/01/13 11:51:39;;;;;;;8.02;2.60;;;10.70;66.10;;;;;;5033998;28;20461;-71
2023/01/13 11:54:27;;;;;;;7.70;2.80;;;10.70;66.30;;;;;;5039882;28;20428;-67
2023/01/13 11:57:14;;;;;;;6.75;2.90;;;10.60;66.40;;;;;;5034296;28;20473;-68
2023/01/13 12:00:17;;;;;;;9.25;2.95;;;10.60;66.70;;;;;;5031557;28;20461;-66
2023/01/13 12:02:53;;;;;;;7.53;2.95;;;10.60;66.60;;;;;;5036633;28;20422;-66
2023/01/13 12:05:29;;;;;;;9.15;2.60;;;10.60;66.50;;;;;;5043412;28;20446;-66
2023/01/13 12:08:15;;;;;;;8.40;2.58;;;10.50;66.20;;;;;;5031587;28;20420;-67
2023/01/13 12:10:57;;;;;;;8.45;3.20;;;10.50;67.70;;;;;;5036481;28;20446;-68
2023/01/13 12:13:31;;;;;;;6.07;2.20;;;10.60;66.50;;;;;;5024152;28;20414;-67
2023/01/13 12:16:14;;;;;;;8.98;2.70;;;10.70;65.70;;;;;;5014043;28;20844;-68
2023/01/13 12:19:06;;;;;;;7.15;2.47;;;10.70;65.50;;;;;;5028123;28;20434;-70
2023/01/13 12:21:36;;;;;;;8.38;2.83;;;10.60;66.00;;;;;;5018416;28;20513;-68
2023/01/13 12:24:13;;;;;;;6.90;2.60;;;10.50;66.50;;;;;;5027447;28;20426;-67
2023/01/13 12:26:44;;;;;;;5.53;2.30;;;10.60;66.50;;;;;;5026166;28;20422;-68
2023/01/13 12:29:17;;;;;;;5.05;2.20;;;10.60;67.20;;;;;;5023003;28;20420;-67
2023/01/13 12:31:47;;;;;;;6.32;2.05;;;10.60;67.10;;;;;;5016593;28;20479;-66
2023/01/13 12:34:28;;;;;;;6.22;2.17;;;10.50;67.00;;;;;;5019690;28;20934;-68
2023/01/13 12:37:05;;;;;;;6.97;2.50;;;10.50;68.90;;;;;;5022402;28;20438;-67
2023/01/13 12:39:46;;;;;;;6.93;2.53;;;10.40;69.20;;;;;;5006755;28;20439;-66
2023/01/13 12:45:25;;;;;;;4.82;2.17;;;10.40;71.80;;;;;;5007172;28;20938;-69
2023/01/13 12:47:52;;;;;;;5.82;1.98;;;10.50;72.40;;;;;;5026012;28;20434;-66
2023/01/13 12:50:43;;;;;;;6.10;2.63;;;10.40;73.70;;;;;;5025287;28;20928;-67
2023/01/13 12:53:33;;;;;;;6.25;2.05;;;10.10;75.50;;;;;;5018110;28;21089;-66
2023/01/13 12:56:31;;;;;;;8.77;2.60;;;10.00;76.50;;;;;;5028420;28;20496;-66
2023/01/13 12:59:47;;;;;;;7.13;2.40;;;9.90;78.50;;;;;;5021775;28;20874;-67
2023/01/13 13:02:32;;;;;;;8.20;2.40;;;9.80;81.10;;;;;;4987442;28;20438;-68
2023/01/13 13:05:03;;;;;;;8.57;2.22;;;9.50;85.90;;;;;;5016686;28;20467;-66
2023/01/13 13:07:40;;;;;;;7.53;2.97;;;9.40;87.80;;;;;;5011247;28;20504;-66
2023/01/13 13:10:18;;;;;;;8.48;2.60;;;9.10;91.80;;;;;;5026044;28;20504;-64
2023/01/13 13:13:18;;;;;;;11.10;3.42;;;9.00;94.00;;;;;;5026294;28;20430;-66
2023/01/13 13:15:46;;;;;;;10.98;3.00;;;8.80;95.00;;;;;;5018880;28;20455;-69
2023/01/13 13:18:30;;;;;;;7.80;2.90;;;8.60;97.20;;;;;;5031541;28;20449;-67
2023/01/13 13:21:00;;;;;;;8.65;2.95;;;8.40;98.90;;;;;;5030922;28;20425;-68
2023/01/13 13:23:46;;;;;;;8.45;2.95;;;8.10;99.20;;;;;;5027424;28;20571;-67
2023/01/13 13:26:35;;;;;;;7.45;2.40;;;7.90;99.80;;;;;;5027846;28;20491;-67
2023/01/13 13:29:27;;;;;;;7.15;2.40;;;7.70;99.90;;;;;;5027208;28;20449;-68
2023/01/13 13:32:38;;;;;;;10.40;3.00;;;7.60;99.90;;;;;;5019778;28;20437;-68
2023/01/13 13:35:31;;;;;;;9.32;3.25;;;7.50;99.90;;;;;;5001919;28;20438;-67
2023/01/13 13:46:48;;;;;;;7.60;2.40;;;7.30;99.90;;;;;;5026990;28;20939;-68
2023/01/13 13:49:16;;;;;;;8.90;2.75;;;7.20;99.90;;;;;;5024879;28;20434;-68
2023/01/13 13:51:50;;;;;;;11.18;2.78;;;7.20;99.90;;;;;;5028383;28;20450;-66
2023/01/13 13:54:19;;;;;;;8.40;3.05;;;7.10;99.90;;;;;;5008479;28;20448;-66
2023/01/13 13:56:49;;;;;;;6.63;2.60;;;7.10;99.90;;;;;;5023226;28;20490;-68
2023/01/13 13:59:19;;;;;;;8.73;2.97;;;7.10;99.90;;;;;;5021385;28;20501;-66
2023/01/13 14:01:52;;;;;;;8.48;2.70;;;7.10;99.90;;;;;;5022810;28;20914;-66
2023/01/13 14:04:24;;;;;;;9.48;2.83;;;7.20;99.90;;;;;;5018559;28;20482;-67
2023/01/13 14:06:53;;;;;;;11.25;3.78;;;7.10;99.90;;;;;;5022056;28;20434;-66
2023/01/13 14:09:22;;;;;;;11.43;3.60;;;7.10;99.90;;;;;;5022706;28;20430;-68
2023/01/13 14:12:01;;;;;;;12.93;4.00;;;7.20;99.90;;;;;;5017604;28;20419;-67
2023/01/13 14:14:28;;;;;;;8.95;3.10;;;7.20;99.90;;;;;;5019369;28;20439;-67